sensor_id;sensor_type;location;lat;lon;timestamp;pressure;altitude;pressure_sealevel;temperature;humidity
63819;BME280;49970;54.976;73.248;2023-09-18T00:00:49;100932.72;;;13.37;84.13
63819;BME280;49970;54.976;73.248;2023-09-18T00:03:17;100934.34;;;13.40;84.15
63819;BME280;49970;54.976;73.248;2023-09-18T00:05:48;100933.47;;;13.39;84.31
63819;BME280;49970;54.976;73.248;2023-09-18T00:08:15;100932.22;;;13.32;84.71
63819;BME280;49970;54.976;73.248;2023-09-18T00:10:42;100919.25;;;13.28;84.73
63819;BME280;49970;54.976;73.248;2023-09-18T00:13:08;100928.38;;;13.36;84.67
63819;BME280;49970;54.976;73.248;2023-09-18T00:15:34;100930.06;;;13.37;85.09
63819;BME280;49970;54.976;73.248;2023-09-18T00:18:01;100924.75;;;13.37;85.39
63819;BME280;49970;54.976;73.248;2023-09-18T00:20:27;100930.50;;;13.44;85.25
63819;BME280;49970;54.976;73.248;2023-09-18T00:22:54;100920.41;;;13.36;85.34
63819;BME280;49970;54.976;73.248;2023-09-18T00:25:22;100918.06;;;13.32;85.31
63819;BME280;49970;54.976;73.248;2023-09-18T00:27:49;100926.47;;;13.38;85.57
63819;BME280;49970;54.976;73.248;2023-09-18T00:30:15;100924.44;;;13.42;85.48
63819;BME280;49970;54.976;73.248;2023-09-18T00:32:41;100921.16;;;13.38;85.21
63819;BME280;49970;54.976;73.248;2023-09-18T00:35:08;100932.84;;;13.36;85.13
63819;BME280;49970;54.976;73.248;2023-09-18T00:37:34;100936.06;;;13.28;85.23
63819;BME280;49970;54.976;73.248;2023-09-18T00:40:03;100922.25;;;13.23;85.66
63819;BME280;49970;54.976;73.248;2023-09-18T00:42:30;100926.06;;;13.32;85.79
63819;BME280;49970;54.976;73.248;2023-09-18T00:44:58;100929.91;;;13.28;85.28
63819;BME280;49970;54.976;73.248;2023-09-18T00:47:24;100930.13;;;13.25;85.81
63819;BME280;49970;54.976;73.248;2023-09-18T00:49:51;100930.75;;;13.28;85.41
63819;BME280;49970;54.976;73.248;2023-09-18T00:52:20;100935.44;;;13.25;85.54
63819;BME280;49970;54.976;73.248;2023-09-18T00:54:48;100922.13;;;13.25;86.04
63819;BME280;49970;54.976;73.248;2023-09-18T00:57:14;100931.16;;;13.35;86.26
63819;BME280;49970;54.976;73.248;2023-09-18T00:59:40;100923.06;;;13.36;86.16
63819;BME280;49970;54.976;73.248;2023-09-18T01:02:07;100932.94;;;13.47;86.07
63819;BME280;49970;54.976;73.248;2023-09-18T01:04:34;100928.13;;;13.52;85.72
63819;BME280;49970;54.976;73.248;2023-09-18T01:07:01;100923.41;;;13.56;85.58
63819;BME280;49970;54.976;73.248;2023-09-18T01:09:31;100925.97;;;13.57;86.11
63819;BME280;49970;54.976;73.248;2023-09-18T01:12:08;100935.75;;;13.57;85.48
63819;BME280;49970;54.976;73.248;2023-09-18T01:17:20;100935.53;;;13.60;86.13
63819;BME280;49970;54.976;73.248;2023-09-18T01:19:47;100935.41;;;13.61;86.04
63819;BME280;49970;54.976;73.248;2023-09-18T01:22:16;100935.31;;;13.63;85.92
63819;BME280;49970;54.976;73.248;2023-09-18T01:24:46;100944.03;;;13.65;86.28
63819;BME280;49970;54.976;73.248;2023-09-18T01:27:17;100941.72;;;13.60;85.47
63819;BME280;49970;54.976;73.248;2023-09-18T01:29:47;100944.09;;;13.52;85.61
63819;BME280;49970;54.976;73.248;2023-09-18T01:32:14;100936.81;;;13.54;85.52
63819;BME280;49970;54.976;73.248;2023-09-18T01:34:52;100931.41;;;13.56;85.50
63819;BME280;49970;54.976;73.248;2023-09-18T01:37:23;100935.34;;;13.50;85.43
63819;BME280;49970;54.976;73.248;2023-09-18T01:39:51;100936.66;;;13.44;86.32
63819;BME280;49970;54.976;73.248;2023-09-18T01:42:18;100943.66;;;13.45;86.11
63819;BME280;49970;54.976;73.248;2023-09-18T01:44:46;100950.09;;;13.43;85.83
63819;BME280;49970;54.976;73.248;2023-09-18T01:47:15;100944.63;;;13.44;86.03
63819;BME280;49970;54.976;73.248;2023-09-18T01:49:42;100954.31;;;13.45;86.27
63819;BME280;49970;54.976;73.248;2023-09-18T01:52:09;100944.75;;;13.43;85.84
63819;BME280;49970;54.976;73.248;2023-09-18T01:54:36;100958.78;;;13.45;85.87
63819;BME280;49970;54.976;73.248;2023-09-18T01:57:03;100948.16;;;13.45;86.26
63819;BME280;49970;54.976;73.248;2023-09-18T01:59:30;100957.72;;;13.48;86.38
63819;BME280;49970;54.976;73.248;2023-09-18T02:01:57;100949.28;;;13.54;86.29
63819;BME280;49970;54.976;73.248;2023-09-18T02:04:23;100941.94;;;13.57;86.36
63819;BME280;49970;54.976;73.248;2023-09-18T02:06:51;100948.63;;;13.63;86.67
63819;BME280;49970;54.976;73.248;2023-09-18T02:09:18;100951.16;;;13.64;86.65
63819;BME280;49970;54.976;73.248;2023-09-18T02:11:45;100950.19;;;13.65;86.95
63819;BME280;49970;54.976;73.248;2023-09-18T02:14:12;100958.09;;;13.67;86.17
63819;BME280;49970;54.976;73.248;2023-09-18T02:16:40;100955.31;;;13.68;86.47
63819;BME280;49970;54.976;73.248;2023-09-18T02:19:11;100964.00;;;13.70;86.77
63819;BME280;49970;54.976;73.248;2023-09-18T02:21:38;100961.59;;;13.67;87.34
63819;BME280;49970;54.976;73.248;2023-09-18T02:24:05;100959.78;;;13.68;87.25
63819;BME280;49970;54.976;73.248;2023-09-18T02:26:31;100965.72;;;13.72;86.64
63819;BME280;49970;54.976;73.248;2023-09-18T02:29:00;100967.31;;;13.74;86.34
63819;BME280;49970;54.976;73.248;2023-09-18T02:31:26;100968.06;;;13.76;86.57
63819;BME280;49970;54.976;73.248;2023-09-18T02:33:54;100955.94;;;13.72;86.01
63819;BME280;49970;54.976;73.248;2023-09-18T02:36:20;100964.19;;;13.80;86.38
63819;BME280;49970;54.976;73.248;2023-09-18T02:38:50;100964.69;;;13.85;85.96
63819;BME280;49970;54.976;73.248;2023-09-18T02:41:16;100968.63;;;13.92;86.30
63819;BME280;49970;54.976;73.248;2023-09-18T02:43:42;100959.53;;;13.95;86.43
63819;BME280;49970;54.976;73.248;2023-09-18T02:46:08;100965.25;;;14.02;86.31
63819;BME280;49970;54.976;73.248;2023-09-18T02:48:35;100967.06;;;14.01;85.83
63819;BME280;49970;54.976;73.248;2023-09-18T02:51:02;100969.41;;;14.06;85.92
63819;BME280;49970;54.976;73.248;2023-09-18T02:53:28;100972.69;;;14.09;85.71
63819;BME280;49970;54.976;73.248;2023-09-18T02:55:57;100972.19;;;14.15;85.62
63819;BME280;49970;54.976;73.248;2023-09-18T02:58:24;100971.97;;;14.18;84.65
63819;BME280;49970;54.976;73.248;2023-09-18T03:00:57;100972.81;;;14.19;84.72
63819;BME280;49970;54.976;73.248;2023-09-18T03:03:30;100970.78;;;14.23;84.50
63819;BME280;49970;54.976;73.248;2023-09-18T03:06:01;100973.72;;;14.31;85.17
63819;BME280;49970;54.976;73.248;2023-09-18T03:08:29;100976.38;;;14.31;84.94
63819;BME280;49970;54.976;73.248;2023-09-18T03:10:57;100976.25;;;14.32;84.96
63819;BME280;49970;54.976;73.248;2023-09-18T03:13:23;100983.03;;;14.36;84.56
63819;BME280;49970;54.976;73.248;2023-09-18T03:15:50;100983.03;;;14.36;84.82
63819;BME280;49970;54.976;73.248;2023-09-18T03:18:16;100982.81;;;14.39;84.75
63819;BME280;49970;54.976;73.248;2023-09-18T03:20:42;100967.81;;;14.38;84.00
63819;BME280;49970;54.976;73.248;2023-09-18T03:23:09;100978.16;;;14.54;83.37
63819;BME280;49970;54.976;73.248;2023-09-18T03:25:36;100978.41;;;14.62;82.73
63819;BME280;49970;54.976;73.248;2023-09-18T03:28:04;100984.97;;;14.69;82.21
63819;BME280;49970;54.976;73.248;2023-09-18T03:30:32;100986.31;;;14.75;82.19
63819;BME280;49970;54.976;73.248;2023-09-18T03:32:59;100983.03;;;14.83;81.35
63819;BME280;49970;54.976;73.248;2023-09-18T03:35:28;100969.34;;;14.87;81.62
63819;BME280;49970;54.976;73.248;2023-09-18T03:37:55;100973.97;;;14.97;81.12
63819;BME280;49970;54.976;73.248;2023-09-18T03:40:22;100979.53;;;15.05;80.80
63819;BME280;49970;54.976;73.248;2023-09-18T03:42:49;100971.75;;;15.13;80.13
63819;BME280;49970;54.976;73.248;2023-09-18T03:45:16;100980.00;;;15.21;79.87
63819;BME280;49970;54.976;73.248;2023-09-18T03:47:46;100983.75;;;15.30;80.05
63819;BME280;49970;54.976;73.248;2023-09-18T03:50:12;100977.31;;;15.43;79.52
63819;BME280;49970;54.976;73.248;2023-09-18T03:52:39;100972.22;;;15.52;79.12
63819;BME280;49970;54.976;73.248;2023-09-18T03:55:07;100982.00;;;15.62;78.28
63819;BME280;49970;54.976;73.248;2023-09-18T03:57:35;100975.47;;;15.66;78.12
63819;BME280;49970;54.976;73.248;2023-09-18T04:00:04;100984.16;;;15.80;76.72
63819;BME280;49970;54.976;73.248;2023-09-18T04:02:37;100972.75;;;15.89;76.84
63819;BME280;49970;54.976;73.248;2023-09-18T04:05:04;100975.09;;;16.03;75.81
63819;BME280;49970;54.976;73.248;2023-09-18T04:07:30;100967.44;;;16.10;75.85
63819;BME280;49970;54.976;73.248;2023-09-18T04:10:00;100974.16;;;16.25;75.73
63819;BME280;49970;54.976;73.248;2023-09-18T04:12:26;100964.50;;;16.34;75.49
63819;BME280;49970;54.976;73.248;2023-09-18T04:14:52;100969.66;;;16.47;75.62
63819;BME280;49970;54.976;73.248;2023-09-18T04:17:18;100971.41;;;16.57;75.58
63819;BME280;49970;54.976;73.248;2023-09-18T04:19:44;100957.97;;;16.68;75.43
63819;BME280;49970;54.976;73.248;2023-09-18T04:22:12;100956.97;;;16.90;75.03
63819;BME280;49970;54.976;73.248;2023-09-18T04:24:38;100955.66;;;17.06;75.10
63819;BME280;49970;54.976;73.248;2023-09-18T04:27:05;100963.03;;;17.23;74.85
63819;BME280;49970;54.976;73.248;2023-09-18T04:29:31;100964.63;;;17.35;73.78
63819;BME280;49970;54.976;73.248;2023-09-18T04:31:57;100972.50;;;17.37;73.91
63819;BME280;49970;54.976;73.248;2023-09-18T04:34:24;100958.72;;;17.51;72.21
63819;BME280;49970;54.976;73.248;2023-09-18T04:36:51;100971.41;;;17.59;72.23
63819;BME280;49970;54.976;73.248;2023-09-18T04:39:17;100969.31;;;17.62;71.61
63819;BME280;49970;54.976;73.248;2023-09-18T04:41:43;100978.63;;;17.68;71.36
63819;BME280;49970;54.976;73.248;2023-09-18T04:44:10;100976.84;;;17.78;71.85
63819;BME280;49970;54.976;73.248;2023-09-18T04:46:38;100972.78;;;17.94;71.33
63819;BME280;49970;54.976;73.248;2023-09-18T04:49:10;100974.03;;;17.99;70.85
63819;BME280;49970;54.976;73.248;2023-09-18T04:51:38;100968.25;;;18.04;71.91
63819;BME280;49970;54.976;73.248;2023-09-18T04:54:05;100963.63;;;18.06;71.27
63819;BME280;49970;54.976;73.248;2023-09-18T04:56:33;100966.72;;;18.11;70.78
63819;BME280;49970;54.976;73.248;2023-09-18T04:58:59;100970.91;;;18.13;70.94
63819;BME280;49970;54.976;73.248;2023-09-18T05:01:26;100967.13;;;18.16;69.75
63819;BME280;49970;54.976;73.248;2023-09-18T05:03:53;100968.50;;;18.30;69.90
63819;BME280;49970;54.976;73.248;2023-09-18T05:06:19;100963.44;;;18.36;69.03
63819;BME280;49970;54.976;73.248;2023-09-18T05:08:46;100967.53;;;18.40;67.11
63819;BME280;49970;54.976;73.248;2023-09-18T05:11:12;100957.47;;;18.42;67.09
63819;BME280;49970;54.976;73.248;2023-09-18T05:13:40;100968.34;;;18.51;65.92
63819;BME280;49970;54.976;73.248;2023-09-18T05:16:06;100962.84;;;18.52;64.78
63819;BME280;49970;54.976;73.248;2023-09-18T05:18:32;100956.72;;;18.60;65.18
63819;BME280;49970;54.976;73.248;2023-09-18T05:20:59;100964.06;;;18.67;65.59
63819;BME280;49970;54.976;73.248;2023-09-18T05:23:25;100961.53;;;18.76;65.65
63819;BME280;49970;54.976;73.248;2023-09-18T05:25:52;100964.47;;;18.82;66.55
63819;BME280;49970;54.976;73.248;2023-09-18T05:28:19;100961.94;;;18.81;64.85
63819;BME280;49970;54.976;73.248;2023-09-18T05:30:45;100964.47;;;18.82;64.82
63819;BME280;49970;54.976;73.248;2023-09-18T05:33:11;100963.63;;;18.82;65.81
63819;BME280;49970;54.976;73.248;2023-09-18T05:35:43;100962.03;;;18.89;66.04
63819;BME280;49970;54.976;73.248;2023-09-18T05:38:10;100953.97;;;18.89;65.91
63819;BME280;49970;54.976;73.248;2023-09-18T05:40:39;100948.50;;;18.90;66.57
63819;BME280;49970;54.976;73.248;2023-09-18T05:43:06;100957.22;;;19.02;66.78
63819;BME280;49970;54.976;73.248;2023-09-18T05:45:33;100954.19;;;19.05;66.17
63819;BME280;49970;54.976;73.248;2023-09-18T05:48:00;100953.38;;;19.05;65.27
63819;BME280;49970;54.976;73.248;2023-09-18T05:50:35;100965.50;;;19.09;65.58
63819;BME280;49970;54.976;73.248;2023-09-18T05:53:02;100953.06;;;19.08;65.13
63819;BME280;49970;54.976;73.248;2023-09-18T05:55:32;100953.19;;;19.16;66.28
63819;BME280;49970;54.976;73.248;2023-09-18T05:57:59;100956.25;;;19.21;64.63
63819;BME280;49970;54.976;73.248;2023-09-18T06:00:26;100959.19;;;19.28;64.03
63819;BME280;49970;54.976;73.248;2023-09-18T06:02:53;100952.28;;;19.25;63.74
63819;BME280;49970;54.976;73.248;2023-09-18T06:05:19;100948.19;;;19.21;64.15
63819;BME280;49970;54.976;73.248;2023-09-18T06:07:49;100955.25;;;19.22;63.46
63819;BME280;49970;54.976;73.248;2023-09-18T06:10:15;100962.84;;;19.27;62.89
63819;BME280;49970;54.976;73.248;2023-09-18T06:12:44;100960.69;;;19.40;63.18
63819;BME280;49970;54.976;73.248;2023-09-18T06:15:11;100946.34;;;19.49;63.25
63819;BME280;49970;54.976;73.248;2023-09-18T06:17:42;100934.50;;;19.42;62.94
63819;BME280;49970;54.976;73.248;2023-09-18T06:20:09;100951.44;;;19.52;62.94
63819;BME280;49970;54.976;73.248;2023-09-18T06:22:40;100954.09;;;19.52;62.94
63819;BME280;49970;54.976;73.248;2023-09-18T06:25:07;100945.34;;;19.50;63.64
63819;BME280;49970;54.976;73.248;2023-09-18T06:27:37;100947.72;;;19.53;63.07
63819;BME280;49970;54.976;73.248;2023-09-18T06:30:04;100937.56;;;19.47;61.16
63819;BME280;49970;54.976;73.248;2023-09-18T06:32:32;100940.34;;;19.55;61.11
63819;BME280;49970;54.976;73.248;2023-09-18T06:34:58;100945.44;;;19.58;61.28
63819;BME280;49970;54.976;73.248;2023-09-18T06:37:25;100927.28;;;19.60;62.08
63819;BME280;49970;54.976;73.248;2023-09-18T06:39:51;100935.94;;;19.64;60.97
63819;BME280;49970;54.976;73.248;2023-09-18T06:42:18;100922.66;;;19.62;60.68
63819;BME280;49970;54.976;73.248;2023-09-18T06:44:49;100925.50;;;19.61;60.21
63819;BME280;49970;54.976;73.248;2023-09-18T06:47:15;100932.00;;;19.58;60.38
63819;BME280;49970;54.976;73.248;2023-09-18T06:54:45;100921.41;;;19.57;61.17
63819;BME280;49970;54.976;73.248;2023-09-18T07:02:25;100919.31;;;19.51;62.00
63819;BME280;49970;54.976;73.248;2023-09-18T07:06:15;100921.16;;;19.50;61.03
63819;BME280;49970;54.976;73.248;2023-09-18T07:11:30;100911.63;;;19.56;61.10
63819;BME280;49970;54.976;73.248;2023-09-18T07:15:21;100909.38;;;19.61;62.37
63819;BME280;49970;54.976;73.248;2023-09-18T07:19:11;100913.00;;;19.70;62.31
63819;BME280;49970;54.976;73.248;2023-09-18T07:23:18;100897.53;;;19.72;61.51
63819;BME280;49970;54.976;73.248;2023-09-18T07:27:09;100898.31;;;19.82;61.43
63819;BME280;49970;54.976;73.248;2023-09-18T07:31:06;100897.47;;;19.81;60.02
63819;BME280;49970;54.976;73.248;2023-09-18T07:34:57;100881.56;;;19.88;60.89
63819;BME280;49970;54.976;73.248;2023-09-18T07:38:48;100894.41;;;19.94;58.43
63819;BME280;49970;54.976;73.248;2023-09-18T07:42:38;100892.84;;;19.92;59.04
63819;BME280;49970;54.976;73.248;2023-09-18T07:50:18;100881.47;;;19.98;58.46
63819;BME280;49970;54.976;73.248;2023-09-18T07:54:40;100884.06;;;20.07;58.72
63819;BME280;49970;54.976;73.248;2023-09-18T07:58:31;100880.91;;;20.12;58.90
63819;BME280;49970;54.976;73.248;2023-09-18T08:02:21;100878.91;;;20.14;58.82
63819;BME280;49970;54.976;73.248;2023-09-18T08:13:51;100861.13;;;20.21;57.75
63819;BME280;49970;54.976;73.248;2023-09-18T08:21:55;100868.59;;;20.35;57.23
63819;BME280;49970;54.976;73.248;2023-09-18T08:25:47;100866.31;;;20.40;56.28
63819;BME280;49970;54.976;73.248;2023-09-18T08:37:18;100859.88;;;20.33;55.97
63819;BME280;49970;54.976;73.248;2023-09-18T08:48:46;100855.22;;;20.44;57.06
63819;BME280;49970;54.976;73.248;2023-09-18T08:53:03;100858.25;;;20.40;56.20
63819;BME280;49970;54.976;73.248;2023-09-18T08:56:53;100851.53;;;20.45;56.25
63819;BME280;49970;54.976;73.248;2023-09-18T09:00:45;100850.75;;;20.52;55.24
63819;BME280;49970;54.976;73.248;2023-09-18T09:04:41;100846.69;;;20.48;55.47
63819;BME280;49970;54.976;73.248;2023-09-18T09:08:31;100838.03;;;20.36;54.95
63819;BME280;49970;54.976;73.248;2023-09-18T09:37:38;100820.03;;;20.37;56.17
63819;BME280;49970;54.976;73.248;2023-09-18T09:40:06;100824.25;;;20.39;56.19
63819;BME280;49970;54.976;73.248;2023-09-18T09:42:57;100822.56;;;20.38;57.17
63819;BME280;49970;54.976;73.248;2023-09-18T09:46:15;100810.28;;;20.36;56.17
63819;BME280;49970;54.976;73.248;2023-09-18T09:49:05;100821.19;;;20.34;57.20
63819;BME280;49970;54.976;73.248;2023-09-18T09:51:33;100818.38;;;20.36;56.81
63819;BME280;49970;54.976;73.248;2023-09-18T09:54:00;100816.56;;;20.45;55.79
63819;BME280;49970;54.976;73.248;2023-09-18T09:56:46;100815.09;;;20.50;55.53
63819;BME280;49970;54.976;73.248;2023-09-18T09:59:14;100815.44;;;20.55;56.13
63819;BME280;49970;54.976;73.248;2023-09-18T10:01:41;100817.81;;;20.58;55.89
63819;BME280;49970;54.976;73.248;2023-09-18T10:04:15;100803.03;;;20.62;56.30
63819;BME280;49970;54.976;73.248;2023-09-18T10:06:51;100798.16;;;20.66;56.21
63819;BME280;49970;54.976;73.248;2023-09-18T10:09:19;100801.22;;;20.71;56.03
63819;BME280;49970;54.976;73.248;2023-09-18T10:11:49;100802.88;;;20.72;54.81
63819;BME280;49970;54.976;73.248;2023-09-18T10:14:21;100794.28;;;20.69;55.05
63819;BME280;49970;54.976;73.248;2023-09-18T10:16:53;100790.09;;;20.66;55.13
63819;BME280;49970;54.976;73.248;2023-09-18T10:19:34;100798.00;;;20.68;55.14
63819;BME280;49970;54.976;73.248;2023-09-18T10:22:19;100790.09;;;20.66;55.42
63819;BME280;49970;54.976;73.248;2023-09-18T10:24:50;100788.41;;;20.65;55.11
63819;BME280;49970;54.976;73.248;2023-09-18T10:27:19;100785.34;;;20.60;54.29
63819;BME280;49970;54.976;73.248;2023-09-18T10:29:49;100782.50;;;20.61;54.62
63819;BME280;49970;54.976;73.248;2023-09-18T10:32:18;100782.84;;;20.58;56.18
63819;BME280;49970;54.976;73.248;2023-09-18T10:34:48;100786.00;;;20.54;55.28
63819;BME280;49970;54.976;73.248;2023-09-18T10:37:15;100786.53;;;20.57;55.47
63819;BME280;49970;54.976;73.248;2023-09-18T10:39:42;100784.69;;;20.58;55.95
63819;BME280;49970;54.976;73.248;2023-09-18T10:42:12;100783.97;;;20.56;55.68
63819;BME280;49970;54.976;73.248;2023-09-18T10:44:46;100790.06;;;20.58;54.91
63819;BME280;49970;54.976;73.248;2023-09-18T10:47:15;100792.59;;;20.59;54.81
63819;BME280;49970;54.976;73.248;2023-09-18T10:49:42;100788.03;;;20.60;54.33
63819;BME280;49970;54.976;73.248;2023-09-18T10:52:12;100788.72;;;20.62;54.80
63819;BME280;49970;54.976;73.248;2023-09-18T10:54:40;100784.38;;;20.61;53.98
63819;BME280;49970;54.976;73.248;2023-09-18T10:57:06;100783.66;;;20.59;54.00
63819;BME280;49970;54.976;73.248;2023-09-18T10:59:32;100788.22;;;20.58;53.75
63819;BME280;49970;54.976;73.248;2023-09-18T11:02:03;100778.59;;;20.56;54.11
63819;BME280;49970;54.976;73.248;2023-09-18T11:04:32;100774.91;;;20.49;54.54
63819;BME280;49970;54.976;73.248;2023-09-18T11:09:30;100780.78;;;20.52;54.95
63819;BME280;49970;54.976;73.248;2023-09-18T11:15:32;100789.38;;;20.56;55.08
63819;BME280;49970;54.976;73.248;2023-09-18T11:19:29;100782.63;;;20.52;54.51
63819;BME280;49970;54.976;73.248;2023-09-18T11:26:46;100787.47;;;20.48;54.66
63819;BME280;49970;54.976;73.248;2023-09-18T11:33:50;100789.84;;;20.51;54.45
63819;BME280;49970;54.976;73.248;2023-09-18T11:38:59;100782.97;;;20.49;54.92
63819;BME280;49970;54.976;73.248;2023-09-18T11:41:35;100785.66;;;20.49;54.65
63819;BME280;49970;54.976;73.248;2023-09-18T11:46:48;100791.50;;;20.44;55.75
63819;BME280;49970;54.976;73.248;2023-09-18T11:49:21;100790.81;;;20.42;55.39
63819;BME280;49970;54.976;73.248;2023-09-18T11:51:48;100797.19;;;20.41;55.34
63819;BME280;49970;54.976;73.248;2023-09-18T11:54:16;100787.59;;;20.38;55.95
63819;BME280;49970;54.976;73.248;2023-09-18T11:56:44;100800.69;;;20.33;55.72
63819;BME280;49970;54.976;73.248;2023-09-18T11:59:10;100793.75;;;20.31;56.10
63819;BME280;49970;54.976;73.248;2023-09-18T12:01:38;100793.56;;;20.24;56.66
63819;BME280;49970;54.976;73.248;2023-09-18T12:04:06;100791.84;;;20.15;57.17
63819;BME280;49970;54.976;73.248;2023-09-18T12:06:39;100796.16;;;20.08;57.48
63819;BME280;49970;54.976;73.248;2023-09-18T12:09:07;100800.84;;;20.06;57.64
63819;BME280;49970;54.976;73.248;2023-09-18T12:11:33;100793.97;;;20.03;58.05
63819;BME280;49970;54.976;73.248;2023-09-18T12:14:19;100804.50;;;19.97;58.26
63819;BME280;49970;54.976;73.248;2023-09-18T12:16:46;100803.97;;;19.93;58.51
63819;BME280;49970;54.976;73.248;2023-09-18T12:19:16;100806.13;;;19.89;58.57
63819;BME280;49970;54.976;73.248;2023-09-18T12:21:46;100797.56;;;19.86;58.70
63819;BME280;49970;54.976;73.248;2023-09-18T12:24:23;100797.00;;;19.82;58.82
63819;BME280;49970;54.976;73.248;2023-09-18T12:26:51;100794.81;;;19.78;59.19
63819;BME280;49970;54.976;73.248;2023-09-18T12:29:19;100797.63;;;19.76;59.16
63819;BME280;49970;54.976;73.248;2023-09-18T12:31:46;100805.16;;;19.73;58.93
63819;BME280;49970;54.976;73.248;2023-09-18T12:39:22;100800.06;;;19.61;59.38
63819;BME280;49970;54.976;73.248;2023-09-18T12:43:13;100799.47;;;19.58;59.37
63819;BME280;49970;54.976;73.248;2023-09-18T12:51:29;100811.16;;;19.49;60.33
63819;BME280;49970;54.976;73.248;2023-09-18T12:55:24;100803.56;;;19.44;60.94
63819;BME280;49970;54.976;73.248;2023-09-18T12:59:19;100799.91;;;19.27;62.33
63819;BME280;49970;54.976;73.248;2023-09-18T13:03:11;100800.66;;;19.20;63.47
63819;BME280;49970;54.976;73.248;2023-09-18T13:07:12;100807.78;;;19.11;64.20
63819;BME280;49970;54.976;73.248;2023-09-18T13:15:02;100802.91;;;18.97;65.41
63819;BME280;49970;54.976;73.248;2023-09-18T13:18:52;100811.88;;;18.87;66.00
63819;BME280;49970;54.976;73.248;2023-09-18T13:22:48;100808.09;;;18.80;66.49
63819;BME280;49970;54.976;73.248;2023-09-18T13:26:19;100809.41;;;18.76;67.05
63819;BME280;49970;54.976;73.248;2023-09-18T13:28:45;100810.41;;;18.75;67.37
63819;BME280;49970;54.976;73.248;2023-09-18T13:31:11;100810.22;;;18.77;67.57
63819;BME280;49970;54.976;73.248;2023-09-18T13:33:40;100810.41;;;18.75;67.97
63819;BME280;49970;54.976;73.248;2023-09-18T13:36:06;100815.94;;;18.74;69.02
63819;BME280;49970;54.976;73.248;2023-09-18T13:38:32;100816.59;;;18.76;69.28
63819;BME280;49970;54.976;73.248;2023-09-18T13:40:59;100817.22;;;18.70;69.19
63819;BME280;49970;54.976;73.248;2023-09-18T13:43:25;100820.16;;;18.66;69.53
63819;BME280;49970;54.976;73.248;2023-09-18T13:45:53;100817.63;;;18.65;70.09
63819;BME280;49970;54.976;73.248;2023-09-18T13:48:21;100829.50;;;18.62;70.18
63819;BME280;49970;54.976;73.248;2023-09-18T13:50:49;100813.59;;;18.51;70.47
63819;BME280;49970;54.976;73.248;2023-09-18T13:53:17;100832.22;;;18.53;70.16
63819;BME280;49970;54.976;73.248;2023-09-18T13:55:43;100818.56;;;18.46;70.72
63819;BME280;49970;54.976;73.248;2023-09-18T13:58:10;100829.84;;;18.50;71.19
63819;BME280;49970;54.976;73.248;2023-09-18T14:00:36;100836.50;;;18.46;71.17
63819;BME280;49970;54.976;73.248;2023-09-18T14:03:03;100829.56;;;18.43;71.06
63819;BME280;49970;54.976;73.248;2023-09-18T14:05:29;100833.84;;;18.36;71.38
63819;BME280;49970;54.976;73.248;2023-09-18T14:07:56;100833.75;;;18.28;71.54
63819;BME280;49970;54.976;73.248;2023-09-18T14:10:26;100837.69;;;18.24;72.15
63819;BME280;49970;54.976;73.248;2023-09-18T14:12:52;100837.97;;;18.21;72.59
63819;BME280;49970;54.976;73.248;2023-09-18T14:15:19;100838.97;;;18.20;73.07
63819;BME280;49970;54.976;73.248;2023-09-18T14:17:45;100835.91;;;18.14;73.54
63819;BME280;49970;54.976;73.248;2023-09-18T14:20:11;100841.09;;;18.16;73.30
63819;BME280;49970;54.976;73.248;2023-09-18T14:22:38;100839.00;;;18.10;72.66
63819;BME280;49970;54.976;73.248;2023-09-18T14:25:05;100835.34;;;18.01;72.96
63819;BME280;49970;54.976;73.248;2023-09-18T14:27:32;100828.03;;;17.94;73.04
63819;BME280;49970;54.976;73.248;2023-09-18T14:30:03;100833.53;;;17.92;73.70
63819;BME280;49970;54.976;73.248;2023-09-18T14:32:33;100839.03;;;17.90;73.90
63819;BME280;49970;54.976;73.248;2023-09-18T14:34:59;100840.47;;;17.85;74.08
63819;BME280;49970;54.976;73.248;2023-09-18T14:37:36;100847.09;;;17.81;74.42
63819;BME280;49970;54.976;73.248;2023-09-18T14:40:03;100849.22;;;17.77;74.53
63819;BME280;49970;54.976;73.248;2023-09-18T14:42:30;100845.94;;;17.74;74.37
63819;BME280;49970;54.976;73.248;2023-09-18T14:48:25;100841.13;;;17.67;74.57
63819;BME280;49970;54.976;73.248;2023-09-18T14:50:55;100847.22;;;17.70;74.64
63819;BME280;49970;54.976;73.248;2023-09-18T14:53:21;100846.50;;;17.67;74.94
63819;BME280;49970;54.976;73.248;2023-09-18T14:55:47;100850.75;;;17.70;74.78
63819;BME280;49970;54.976;73.248;2023-09-18T14:58:14;100848.22;;;17.68;74.35
63819;BME280;49970;54.976;73.248;2023-09-18T15:00:41;100846.50;;;17.67;74.58
63819;BME280;49970;54.976;73.248;2023-09-18T15:03:07;100853.97;;;17.64;75.03
63819;BME280;49970;54.976;73.248;2023-09-18T15:05:33;100848.34;;;17.67;74.35
63819;BME280;49970;54.976;73.248;2023-09-18T15:07:59;100841.44;;;17.64;74.38
63819;BME280;49970;54.976;73.248;2023-09-18T15:10:25;100849.75;;;17.71;75.18
63819;BME280;49970;54.976;73.248;2023-09-18T15:12:53;100841.00;;;17.69;75.01
63819;BME280;49970;54.976;73.248;2023-09-18T15:15:21;100844.97;;;17.65;74.90
63819;BME280;49970;54.976;73.248;2023-09-18T15:17:47;100842.72;;;17.60;75.62
63819;BME280;49970;54.976;73.248;2023-09-18T15:20:13;100846.34;;;17.59;75.72
63819;BME280;49970;54.976;73.248;2023-09-18T15:22:43;100846.66;;;17.56;75.98
63819;BME280;49970;54.976;73.248;2023-09-18T15:25:09;100841.56;;;17.53;76.14